Pudong, Shanghai

1:41 PM CST on October 23, 2014 (GMT +0800)
Pudong | Change Station
CLOSE
Current Station
Airport
Location: Pudong,
Elevation: 13 ft
Nearby Weather Stations

Elev 13 ft 31.15 °N, 121.80 °E | Updated 11 minutes ago

Clear
Clear
72 °F
Feels Like 72 °F
N
7
Wind Variable Wind from NE

Today
High -- | Low -- °F
--% Chance of Precip.
Yesterday
High -- | Low -- °F
Precip. -- in
6:00 AM 5:13 PM
Waning Crescent, 0% visible
Pressure 30.12 in
Visibility -9999.0 miles
Clouds
Dew Point 55 °F
Humidity 57%
Rainfall 0.00 in
Snow Depth Not available.
UV Not available.
Pollen Not available.
Air Quality Not available.
Flu Activity Not available.
METAR ZSPD 230530Z 05003MPS 010V100 CAVOK 22/13 Q1020 NOSIG

More Conditions Fewer Conditions

Pressure 30.12 in
Visibility -9999.0 miles
Clouds
Dew Point 55 °F
Humidity 57%
Rainfall 0.00 in
Snow Depth Not available.
UV Not available.
Pollen Not available.
Air Quality Not available.
Flu Activity Not available.
METAR ZSPD 230530Z 05003MPS 010V100 CAVOK 22/13 Q1020 NOSIG

More Conditions Fewer Conditions

10-Day Weather Forecast

Almanac

Astronomy

Oct. 23, 2014 Rise Set
Actual Time 6:00 AM CST 5:13 PM CST
Civil Twilight 5:36 AM CST 5:37 PM CST
Nautical Twilight 5:07 AM CST 6:06 PM CST
Astronomical Twilight 4:39 AM CST 6:34 PM CST
Moon 5:09 AM CST 4:52 PM CST
Length of Visible Light 12h 01m
Length of Day
11h 12m
Tomorrow will be 1m 45s shorter.
Waning Crescent, 0% of the Moon is Illuminated
Today
Waning Crescent
Oct 23
New
Oct 30
First Quarter
Nov 6
Full
Nov 14
Last Quarter

Yesterday's Extremes

Country Highs Country Lows

Community

WunderPhotos

Upload Photos

1,764,188 photos uploaded!

Nearby

Snow Depth

Not available.

Earthquake Activity

City Distance Mag. Time & Date
No recent earthquake activity has been reported nearby.
Minimum magnitude displayed is 2.5.

Coastal Water Temperatures

Place Temperature
No Stations Reporting

Nearby Weather Stations